Time,TemperatureF,DewpointF,PressureIn,WindDirection,WindDirectionDegrees,WindSpeedMPH,WindSpeedGustMPH,Humidity,HourlyPrecipIn,Conditions,Clouds,dailyrainin,SolarRadiationWatts/m^2,SoftwareType,DateUTC
2013-09-12 00:10:00,76.7,74.8,29.80,North,-999,0.0,0.0,94,0.01,,,-99.99,0,WeatherLink 5.4,2013-09-12 04:10:00,
2013-09-12 00:14:00,76.7,74.8,29.80,North,-999,0.0,0.0,94,0.01,,,-99.99,0,WeatherLink 5.4,2013-09-12 04:14:00,
2013-09-12 00:29:00,76.6,74.7,29.80,North,-999,0.0,0.0,94,0.01,,,-99.99,0,WeatherLink 5.4,2013-09-12 04:29:00,
2013-09-12 00:30:00,76.5,74.6,29.80,North,-999,0.0,0.0,94,0.01,,,-99.99,0,WeatherLink 5.4,2013-09-12 04:30:00,
2013-09-12 00:40:00,76.5,74.6,29.80,North,-999,0.0,0.0,94,0.02,,,-99.99,0,WeatherLink 5.4,2013-09-12 04:40:00,
2013-09-12 00:44:00,76.5,74.6,29.80,North,-999,0.0,0.0,94,0.02,,,-99.99,0,WeatherLink 5.4,2013-09-12 04:44:00,
2013-09-12 00:59:00,76.5,74.6,29.79,North,-999,0.0,0.0,94,0.01,,,-99.99,0,WeatherLink 5.4,2013-09-12 04:59:00,
2013-09-12 01:00:00,76.5,74.6,29.79,North,-999,0.0,0.0,94,0.01,,,-99.99,0,WeatherLink 5.4,2013-09-12 05:00:00,
2013-09-12 01:10:00,76.7,74.8,29.79,North,-999,0.0,0.0,94,0.01,,,-99.99,0,WeatherLink 5.4,2013-09-12 05:10:00,
2013-09-12 01:14:00,76.7,74.8,29.79,North,-999,0.0,0.0,94,0.01,,,-99.99,0,WeatherLink 5.4,2013-09-12 05:14:00,
2013-09-12 01:20:00,76.7,74.8,29.78,North,-999,0.0,0.0,94,0.01,,,-99.99,0,WeatherLink 5.4,2013-09-12 05:20:00,
2013-09-12 01:30:00,76.5,74.6,29.77,North,-999,0.0,0.0,94,0.01,,,-99.99,0,WeatherLink 5.4,2013-09-12 05:30:00,
2013-09-12 01:40:00,76.5,74.6,29.77,North,-999,0.0,0.0,94,0.00,,,-99.99,0,WeatherLink 5.4,2013-09-12 05:40:00,
2013-09-12 01:45:00,76.5,74.6,29.77,North,-999,0.0,0.0,94,0.00,,,-99.99,0,WeatherLink 5.4,2013-09-12 05:45:00,
2013-09-12 01:50:00,76.4,74.5,29.77,North,-999,0.0,0.0,94,0.00,,,-99.99,0,WeatherLink 5.4,2013-09-12 05:50:00,
2013-09-12 02:00:00,76.3,74.4,29.76,North,-999,0.0,0.0,94,0.00,,,-99.99,0,WeatherLink 5.4,2013-09-12 06:00:00,
2013-09-12 02:10:00,76.3,74.4,29.76,North,-999,0.0,0.0,94,0.00,,,-99.99,0,WeatherLink 5.4,2013-09-12 06:10:00,
2013-09-12 02:14:00,76.3,74.4,29.76,North,-999,0.0,0.0,94,0.00,,,-99.99,0,WeatherLink 5.4,2013-09-12 06:14:00,
2013-09-12 02:29:00,76.2,74.3,29.76,North,-999,0.0,0.0,94,0.00,,,-99.99,0,WeatherLink 5.4,2013-09-12 06:29:00,
2013-09-12 02:30:00,76.1,74.6,29.75,North,-999,0.0,0.0,95,0.00,,,-99.99,0,WeatherLink 5.4,2013-09-12 06:30:00,
2013-09-12 02:40:00,76.1,74.2,29.75,North,-999,0.0,0.0,94,0.00,,,-99.99,0,WeatherLink 5.4,2013-09-12 06:40:00,
2013-09-12 02:44:00,76.1,74.2,29.75,North,-999,0.0,0.0,94,0.00,,,-99.99,0,WeatherLink 5.4,2013-09-12 06:44:00,
2013-09-12 02:59:00,76.0,74.1,29.75,North,-999,0.0,0.0,94,0.00,,,-99.99,0,WeatherLink 5.4,2013-09-12 06:59:00,
2013-09-12 03:00:00,75.8,74.3,29.75,North,-999,0.0,0.0,95,0.00,,,-99.99,0,WeatherLink 5.4,2013-09-12 07:00:00,
2013-09-12 03:10:00,75.8,74.3,29.75,North,-999,0.0,0.0,95,0.00,,,-99.99,0,WeatherLink 5.4,2013-09-12 07:10:00,
2013-09-12 03:14:00,75.8,74.3,29.75,North,-999,0.0,0.0,95,0.00,,,-99.99,0,WeatherLink 5.4,2013-09-12 07:14:00,
2013-09-12 03:29:00,75.7,74.2,29.74,North,-999,0.0,0.0,95,0.00,,,-99.99,0,WeatherLink 5.4,2013-09-12 07:29:00,
2013-09-12 03:30:00,75.6,74.1,29.74,North,-999,0.0,0.0,95,0.00,,,-99.99,0,WeatherLink 5.4,2013-09-12 07:30:00,
2013-09-12 03:40:00,75.6,74.1,29.74,North,-999,0.0,0.0,95,0.00,,,-99.99,0,WeatherLink 5.4,2013-09-12 07:40:00,
2013-09-12 03:44:00,75.6,74.1,29.74,North,-999,0.0,0.0,95,0.00,,,-99.99,0,WeatherLink 5.4,2013-09-12 07:44:00,
2013-09-12 03:59:00,75.5,74.0,29.74,North,-999,0.0,0.0,95,0.00,,,-99.99,0,WeatherLink 5.4,2013-09-12 07:59:00,
2013-09-12 04:00:00,75.4,73.9,29.74,North,-999,0.0,0.0,95,0.00,,,-99.99,0,WeatherLink 5.4,2013-09-12 08:00:00,
2013-09-12 04:10:00,75.4,73.9,29.74,North,-999,0.0,0.0,95,0.00,,,-99.99,0,WeatherLink 5.4,2013-09-12 08:10:00,
2013-09-12 04:13:00,75.4,73.9,29.74,North,-999,0.0,0.0,95,0.00,,,-99.99,0,WeatherLink 5.4,2013-09-12 08:13:00,
2013-09-12 04:20:00,75.3,73.8,29.74,North,-999,0.0,0.0,95,0.00,,,-99.99,0,WeatherLink 5.4,2013-09-12 08:20:00,
2013-09-12 04:30:00,75.3,73.8,29.74,North,-999,0.0,0.0,95,0.00,,,-99.99,0,WeatherLink 5.4,2013-09-12 08:30:00,
2013-09-12 04:40:00,75.3,73.8,29.74,North,-999,0.0,0.0,95,0.00,,,-99.99,0,WeatherLink 5.4,2013-09-12 08:40:00,
2013-09-12 04:45:00,75.3,73.8,29.74,North,-999,0.0,0.0,95,0.00,,,-99.99,0,WeatherLink 5.4,2013-09-12 08:45:00,
2013-09-12 04:59:00,75.1,73.6,29.74,North,-999,0.0,0.0,95,0.00,,,-99.99,0,WeatherLink 5.4,2013-09-12 08:59:00,
2013-09-12 05:00:00,75.1,73.6,29.74,North,-999,0.0,0.0,95,0.01,,,-99.99,0,WeatherLink 5.4,2013-09-12 09:00:00,
2013-09-12 05:10:00,75.2,73.7,29.74,North,-999,0.0,0.0,95,0.02,,,-99.99,0,WeatherLink 5.4,2013-09-12 09:10:00,
2013-09-12 05:14:00,75.2,73.7,29.74,North,-999,0.0,0.0,95,0.02,,,-99.99,0,WeatherLink 5.4,2013-09-12 09:14:00,
2013-09-12 05:29:00,75.2,73.7,29.74,North,-999,0.0,0.0,95,0.02,,,-99.99,0,WeatherLink 5.4,2013-09-12 09:29:00,
2013-09-12 05:30:00,75.3,73.8,29.74,North,-999,0.0,0.0,95,0.02,,,-99.99,0,WeatherLink 5.4,2013-09-12 09:30:00,
2013-09-12 05:40:00,75.3,73.8,29.74,North,-999,0.0,0.0,95,0.02,,,-99.99,0,WeatherLink 5.4,2013-09-12 09:40:00,
2013-09-12 05:44:00,75.3,73.8,29.74,North,-999,0.0,0.0,95,0.02,,,-99.99,0,WeatherLink 5.4,2013-09-12 09:44:00,
2013-09-12 05:59:00,75.1,73.6,29.74,North,-999,0.0,0.0,95,0.02,,,-99.99,0,WeatherLink 5.4,2013-09-12 09:59:00,
2013-09-12 06:00:00,75.1,73.6,29.74,North,-999,0.0,0.0,95,0.01,,,-99.99,0,WeatherLink 5.4,2013-09-12 10:00:00,
2013-09-12 06:10:00,75.0,73.5,29.74,North,-999,0.0,0.0,95,0.00,,,-99.99,0,WeatherLink 5.4,2013-09-12 10:10:00,
2013-09-12 06:14:00,75.0,73.5,29.74,North,-999,0.0,0.0,95,0.00,,,-99.99,0,WeatherLink 5.4,2013-09-12 10:14:00,
2013-09-12 06:29:00,74.9,73.4,29.75,North,-999,0.0,0.0,95,0.05,,,-99.99,0,WeatherLink 5.4,2013-09-12 10:29:00,
2013-09-12 06:30:00,75.2,73.7,29.75,North,-999,0.0,0.0,95,0.10,,,-99.99,10,WeatherLink 5.4,2013-09-12 10:30:00,
2013-09-12 06:40:00,75.5,74.0,29.75,North,-999,0.0,0.0,95,0.10,,,-99.99,9,WeatherLink 5.4,2013-09-12 10:40:00,
2013-09-12 06:44:00,75.5,74.0,29.75,North,-999,0.0,0.0,95,0.10,,,-99.99,9,WeatherLink 5.4,2013-09-12 10:44:00,
2013-09-12 06:59:00,75.5,74.0,29.75,North,-999,0.0,0.0,95,0.10,,,-99.99,10,WeatherLink 5.4,2013-09-12 10:59:00,
2013-09-12 07:00:00,75.5,74.0,29.75,North,-999,0.0,0.0,95,0.10,,,-99.99,15,WeatherLink 5.4,2013-09-12 11:00:00,
2013-09-12 07:10:00,75.6,74.1,29.75,North,-999,0.0,0.0,95,0.10,,,-99.99,16,WeatherLink 5.4,2013-09-12 11:10:00,
2013-09-12 07:14:00,75.6,74.1,29.75,North,-999,0.0,0.0,95,0.10,,,-99.99,16,WeatherLink 5.4,2013-09-12 11:14:00,
2013-09-12 07:29:00,75.7,74.2,29.76,SW,225,0.0,1.0,95,0.08,,,-99.99,34,WeatherLink 5.4,2013-09-12 11:29:00,
2013-09-12 07:30:00,75.9,74.4,29.76,North,-999,0.0,0.0,95,0.03,,,-99.99,171,WeatherLink 5.4,2013-09-12 11:30:00,
2013-09-12 07:40:00,76.4,74.9,29.76,North,-999,0.0,0.0,95,0.03,,,-99.99,215,WeatherLink 5.4,2013-09-12 11:40:00,
2013-09-12 07:45:00,76.4,74.9,29.76,North,-999,0.0,0.0,95,0.03,,,-99.99,215,WeatherLink 5.4,2013-09-12 11:45:00,
2013-09-12 07:59:00,76.8,75.3,29.77,North,-999,0.0,0.0,95,0.03,,,-99.99,101,WeatherLink 5.4,2013-09-12 11:59:00,
2013-09-12 08:00:00,76.8,75.3,29.77,North,-999,0.0,0.0,95,0.03,,,-99.99,51,WeatherLink 5.4,2013-09-12 12:00:00,
2013-09-12 08:10:00,77.0,75.5,29.77,North,-999,0.0,0.0,95,0.03,,,-99.99,60,WeatherLink 5.4,2013-09-12 12:10:00,
2013-09-12 08:15:00,77.0,75.5,29.77,North,-999,0.0,0.0,95,0.03,,,-99.99,60,WeatherLink 5.4,2013-09-12 12:15:00,
2013-09-12 08:29:00,77.1,75.6,29.77,North,-999,0.0,0.0,95,0.00,,,-99.99,140,WeatherLink 5.4,2013-09-12 12:29:00,
2013-09-12 08:30:00,77.5,76.0,29.77,North,-999,0.0,0.0,95,0.00,,,-99.99,192,WeatherLink 5.4,2013-09-12 12:30:00,
2013-09-12 08:40:00,77.7,76.2,29.77,North,-999,0.0,0.0,95,0.00,,,-99.99,208,WeatherLink 5.4,2013-09-12 12:40:00,
2013-09-12 08:44:00,77.7,76.2,29.77,North,-999,0.0,0.0,95,0.00,,,-99.99,208,WeatherLink 5.4,2013-09-12 12:44:00,
2013-09-12 08:59:00,77.8,76.3,29.77,North,-999,0.0,0.0,95,0.00,,,-99.99,292,WeatherLink 5.4,2013-09-12 12:59:00,
2013-09-12 09:00:00,78.2,76.6,29.77,North,-999,0.0,0.0,95,0.00,,,-99.99,189,WeatherLink 5.4,2013-09-12 13:00:00,
2013-09-12 09:10:00,78.1,76.6,29.77,North,-999,0.0,0.0,95,0.01,,,-99.99,104,WeatherLink 5.4,2013-09-12 13:10:00,
2013-09-12 09:14:00,78.1,76.6,29.77,North,-999,0.0,0.0,95,0.01,,,-99.99,104,WeatherLink 5.4,2013-09-12 13:14:00,
2013-09-12 09:29:00,78.1,76.6,29.77,South,180,0.0,1.0,95,0.05,,,-99.99,75,WeatherLink 5.4,2013-09-12 13:29:00,
2013-09-12 09:30:00,78.2,76.6,29.77,North,-999,0.0,0.0,95,0.07,,,-99.99,198,WeatherLink 5.4,2013-09-12 13:30:00,
2013-09-12 09:40:00,78.1,76.6,29.77,North,-999,0.0,0.0,95,0.08,,,-99.99,328,WeatherLink 5.4,2013-09-12 13:40:00,
2013-09-12 09:44:00,78.1,76.6,29.77,North,-999,0.0,0.0,95,0.08,,,-99.99,328,WeatherLink 5.4,2013-09-12 13:44:00,
2013-09-12 09:59:00,78.4,76.8,29.77,North,-999,0.0,0.0,95,0.08,,,-99.99,592,WeatherLink 5.4,2013-09-12 13:59:00,
2013-09-12 10:00:00,79.0,77.4,29.77,North,-999,0.0,0.0,95,0.08,,,-99.99,573,WeatherLink 5.4,2013-09-12 14:00:00,
2013-09-12 10:10:00,78.9,77.0,29.77,North,-999,0.0,0.0,94,0.07,,,-99.99,493,WeatherLink 5.4,2013-09-12 14:10:00,
2013-09-12 10:14:00,78.9,77.0,29.77,North,-999,0.0,0.0,94,0.07,,,-99.99,493,WeatherLink 5.4,2013-09-12 14:14:00,
2013-09-12 10:20:00,79.1,77.2,29.77,North,-999,0.0,0.0,94,0.03,,,-99.99,452,WeatherLink 5.4,2013-09-12 14:20:00,
2013-09-12 10:30:00,79.2,77.3,29.77,North,-999,0.0,0.0,94,0.01,,,-99.99,309,WeatherLink 5.4,2013-09-12 14:30:00,
2013-09-12 10:40:00,79.9,77.4,29.77,North,-999,0.0,0.0,92,0.00,,,-99.99,253,WeatherLink 5.4,2013-09-12 14:40:00,
2013-09-12 10:45:00,79.9,77.4,29.77,North,-999,0.0,0.0,92,0.00,,,-99.99,253,WeatherLink 5.4,2013-09-12 14:45:00,
2013-09-12 10:50:00,80.2,77.3,29.76,North,-999,0.0,0.0,91,0.00,,,-99.99,274,WeatherLink 5.4,2013-09-12 14:50:00,
2013-09-12 11:00:00,80.3,77.1,29.76,North,-999,0.0,0.0,90,0.00,,,-99.99,217,WeatherLink 5.4,2013-09-12 15:00:00,
2013-09-12 11:10:00,80.5,77.0,29.76,North,-999,0.0,0.0,89,0.00,,,-99.99,339,WeatherLink 5.4,2013-09-12 15:10:00,
2013-09-12 11:14:00,80.5,77.0,29.76,North,-999,0.0,0.0,89,0.00,,,-99.99,339,WeatherLink 5.4,2013-09-12 15:14:00,
2013-09-12 11:29:00,81.0,77.4,29.75,North,-999,0.0,0.0,89,0.00,,,-99.99,365,WeatherLink 5.4,2013-09-12 15:29:00,
2013-09-12 11:30:00,81.5,77.3,29.75,North,-999,0.0,0.0,87,0.00,,,-99.99,243,WeatherLink 5.4,2013-09-12 15:30:00,
2013-09-12 11:40:00,81.4,77.2,29.75,North,-999,0.0,0.0,87,0.20,,,-99.99,39,WeatherLink 5.4,2013-09-12 15:40:00,
2013-09-12 11:44:00,81.4,77.2,29.75,North,-999,0.0,0.0,87,0.20,,,-99.99,39,WeatherLink 5.4,2013-09-12 15:44:00,
2013-09-12 11:59:00,80.6,76.7,29.75,North,-999,0.0,0.0,88,0.20,,,-99.99,83,WeatherLink 5.4,2013-09-12 15:59:00,
2013-09-12 12:00:00,80.2,76.7,29.75,North,-999,0.0,0.0,89,0.20,,,-99.99,87,WeatherLink 5.4,2013-09-12 16:00:00,
2013-09-12 12:10:00,80.0,76.8,29.75,East,90,0.0,7.0,90,0.21,,,-99.99,56,WeatherLink 5.4,2013-09-12 16:10:00,
2013-09-12 12:14:00,80.0,76.8,29.75,East,90,0.0,7.0,90,0.21,,,-99.99,56,WeatherLink 5.4,2013-09-12 16:14:00,
2013-09-12 12:29:00,78.8,75.6,29.76,East,90,4.0,12.0,90,0.30,,,-99.99,23,WeatherLink 5.4,2013-09-12 16:29:00,
2013-09-12 12:30:00,77.4,74.2,29.75,SE,135,2.0,8.0,90,0.31,,,-99.99,34,WeatherLink 5.4,2013-09-12 16:30:00,
2013-09-12 12:40:00,76.8,74.0,29.75,SE,135,0.0,1.0,91,0.11,,,-99.99,56,WeatherLink 5.4,2013-09-12 16:40:00,
2013-09-12 12:44:00,76.8,74.0,29.75,SE,135,0.0,1.0,91,0.11,,,-99.99,56,WeatherLink 5.4,2013-09-12 16:44:00,
2013-09-12 12:59:00,77.0,74.5,29.74,North,-999,0.0,0.0,92,0.11,,,-99.99,83,WeatherLink 5.4,2013-09-12 16:59:00,
2013-09-12 13:00:00,77.4,74.9,29.74,North,-999,0.0,0.0,92,0.11,,,-99.99,115,WeatherLink 5.4,2013-09-12 17:00:00,
2013-09-12 13:10:00,77.4,74.9,29.74,North,-999,0.0,0.0,92,0.10,,,-99.99,165,WeatherLink 5.4,2013-09-12 17:10:00,
2013-09-12 13:13:00,77.4,74.9,29.74,North,-999,0.0,0.0,92,0.10,,,-99.99,165,WeatherLink 5.4,2013-09-12 17:13:00,
2013-09-12 13:20:00,77.5,75.0,29.73,North,-999,0.0,0.0,92,0.01,,,-99.99,208,WeatherLink 5.4,2013-09-12 17:20:00,
2013-09-12 13:30:00,77.5,75.0,29.73,North,-999,0.0,0.0,92,0.00,,,-99.99,220,WeatherLink 5.4,2013-09-12 17:30:00,
2013-09-12 13:40:00,77.8,75.3,29.73,North,-999,0.0,0.0,92,0.00,,,-99.99,149,WeatherLink 5.4,2013-09-12 17:40:00,
2013-09-12 13:45:00,77.8,75.3,29.73,North,-999,0.0,0.0,92,0.00,,,-99.99,149,WeatherLink 5.4,2013-09-12 17:45:00,
2013-09-12 13:59:00,78.0,75.5,29.72,North,-999,0.0,0.0,92,0.00,,,-99.99,158,WeatherLink 5.4,2013-09-12 17:59:00,
2013-09-12 14:00:00,78.3,75.8,29.73,North,-999,0.0,0.0,92,0.00,,,-99.99,127,WeatherLink 5.4,2013-09-12 18:00:00,
2013-09-12 14:10:00,78.3,75.8,29.73,SSE,157,0.0,2.0,92,0.04,,,-99.99,112,WeatherLink 5.4,2013-09-12 18:10:00,
2013-09-12 14:14:00,78.3,75.8,29.73,SSE,157,0.0,2.0,92,0.04,,,-99.99,112,WeatherLink 5.4,2013-09-12 18:14:00,
2013-09-12 14:29:00,78.3,75.8,29.71,North,-999,0.0,0.0,92,0.04,,,-99.99,158,WeatherLink 5.4,2013-09-12 18:29:00,
2013-09-12 14:30:00,78.4,75.9,29.72,North,-999,0.0,0.0,92,0.06,,,-99.99,37,WeatherLink 5.4,2013-09-12 18:30:00,
2013-09-12 14:40:00,78.5,76.0,29.72,ESE,112,0.0,5.0,92,0.20,,,-99.99,27,WeatherLink 5.4,2013-09-12 18:40:00,
2013-09-12 14:44:00,78.5,76.0,29.72,ESE,112,0.0,5.0,92,0.20,,,-99.99,27,WeatherLink 5.4,2013-09-12 18:44:00,
2013-09-12 14:59:00,78.0,75.5,29.71,ENE,67,0.0,1.0,92,0.22,,,-99.99,67,WeatherLink 5.4,2013-09-12 18:59:00,
2013-09-12 15:00:00,77.7,75.2,29.71,North,-999,0.0,0.0,92,0.22,,,-99.99,94,WeatherLink 5.4,2013-09-12 19:00:00,
2013-09-12 15:10:00,77.6,75.4,29.71,North,-999,0.0,0.0,93,0.18,,,-99.99,118,WeatherLink 5.4,2013-09-12 19:10:00,
2013-09-12 15:14:00,77.6,75.4,29.71,North,-999,0.0,0.0,93,0.18,,,-99.99,118,WeatherLink 5.4,2013-09-12 19:14:00,
2013-09-12 15:29:00,77.6,75.4,29.70,North,-999,0.0,0.0,93,0.18,,,-99.99,136,WeatherLink 5.4,2013-09-12 19:29:00,
2013-09-12 15:30:00,77.6,75.4,29.71,North,-999,0.0,0.0,93,0.16,,,-99.99,146,WeatherLink 5.4,2013-09-12 19:30:00,
2013-09-12 15:40:00,77.6,75.4,29.71,North,-999,0.0,0.0,93,0.02,,,-99.99,161,WeatherLink 5.4,2013-09-12 19:40:00,
2013-09-12 15:44:00,77.6,75.4,29.71,North,-999,0.0,0.0,93,0.02,,,-99.99,161,WeatherLink 5.4,2013-09-12 19:44:00,
2013-09-12 15:58:00,77.9,75.7,29.70,North,-999,0.0,0.0,93,0.00,,,-99.99,164,WeatherLink 5.4,2013-09-12 19:58:00,
2013-09-12 16:00:00,78.1,75.9,29.70,North,-999,0.0,0.0,93,0.00,,,-99.99,181,WeatherLink 5.4,2013-09-12 20:00:00,
2013-09-12 16:10:00,78.5,76.3,29.70,North,-999,0.0,0.0,93,0.00,,,-99.99,189,WeatherLink 5.4,2013-09-12 20:10:00,
2013-09-12 16:15:00,78.5,76.3,29.70,North,-999,0.0,0.0,93,0.00,,,-99.99,189,WeatherLink 5.4,2013-09-12 20:15:00,
2013-09-12 16:29:00,78.9,76.7,29.69,North,-999,0.0,0.0,93,0.00,,,-99.99,188,WeatherLink 5.4,2013-09-12 20:29:00,
2013-09-12 16:30:00,79.1,76.9,29.69,North,-999,0.0,0.0,93,0.00,,,-99.99,180,WeatherLink 5.4,2013-09-12 20:30:00,
2013-09-12 16:40:00,79.3,77.1,29.69,North,-999,0.0,0.0,93,0.00,,,-99.99,162,WeatherLink 5.4,2013-09-12 20:40:00,
2013-09-12 16:44:00,79.3,77.1,29.69,North,-999,0.0,0.0,93,0.00,,,-99.99,162,WeatherLink 5.4,2013-09-12 20:44:00,
2013-09-12 16:59:00,79.5,77.3,29.69,North,-999,0.0,0.0,93,0.00,,,-99.99,151,WeatherLink 5.4,2013-09-12 20:59:00,
2013-09-12 17:00:00,79.6,77.4,29.69,North,-999,0.0,0.0,93,0.00,,,-99.99,133,WeatherLink 5.4,2013-09-12 21:00:00,
2013-09-12 17:10:00,79.7,77.5,29.69,North,-999,0.0,0.0,93,0.00,,,-99.99,102,WeatherLink 5.4,2013-09-12 21:10:00,
2013-09-12 17:14:00,79.7,77.5,29.69,North,-999,0.0,0.0,93,0.00,,,-99.99,102,WeatherLink 5.4,2013-09-12 21:14:00,
2013-09-12 17:29:00,79.6,77.4,29.69,North,-999,0.0,0.0,93,0.00,,,-99.99,97,WeatherLink 5.4,2013-09-12 21:29:00,
2013-09-12 17:30:00,79.7,77.5,29.68,North,-999,0.0,0.0,93,0.00,,,-99.99,75,WeatherLink 5.4,2013-09-12 21:30:00,
2013-09-12 17:40:00,79.8,77.6,29.68,North,-999,0.0,0.0,93,0.00,,,-99.99,61,WeatherLink 5.4,2013-09-12 21:40:00,
2013-09-12 17:44:00,79.8,77.6,29.68,North,-999,0.0,0.0,93,0.00,,,-99.99,61,WeatherLink 5.4,2013-09-12 21:44:00,
2013-09-12 17:59:00,79.7,77.5,29.69,North,-999,0.0,0.0,93,0.00,,,-99.99,50,WeatherLink 5.4,2013-09-12 21:59:00,
2013-09-12 18:00:00,79.6,77.4,29.69,North,-999,0.0,0.0,93,0.00,,,-99.99,39,WeatherLink 5.4,2013-09-12 22:00:00,
2013-09-12 18:10:00,79.6,77.4,29.69,North,-999,0.0,0.0,93,0.00,,,-99.99,24,WeatherLink 5.4,2013-09-12 22:10:00,
2013-09-12 18:14:00,79.6,77.4,29.69,North,-999,0.0,0.0,93,0.00,,,-99.99,24,WeatherLink 5.4,2013-09-12 22:14:00,
2013-09-12 18:29:00,79.4,77.2,29.68,North,-999,0.0,0.0,93,0.00,,,-99.99,14,WeatherLink 5.4,2013-09-12 22:29:00,
2013-09-12 18:30:00,79.3,77.1,29.69,North,-999,0.0,0.0,93,0.00,,,-99.99,8,WeatherLink 5.4,2013-09-12 22:30:00,
2013-09-12 18:40:00,79.2,77.0,29.69,North,-999,0.0,0.0,93,0.00,,,-99.99,0,WeatherLink 5.4,2013-09-12 22:40:00,
2013-09-12 18:44:00,79.2,77.0,29.69,North,-999,0.0,0.0,93,0.00,,,-99.99,0,WeatherLink 5.4,2013-09-12 22:44:00,
2013-09-12 18:59:00,78.9,76.7,29.69,North,-999,0.0,0.0,93,0.00,,,-99.99,0,WeatherLink 5.4,2013-09-12 22:59:00,
2013-09-12 19:00:00,78.8,76.6,29.69,North,-999,0.0,0.0,93,0.00,,,-99.99,0,WeatherLink 5.4,2013-09-12 23:00:00,
2013-09-12 19:10:00,78.6,76.4,29.69,North,-999,0.0,0.0,93,0.00,,,-99.99,0,WeatherLink 5.4,2013-09-12 23:10:00,
2013-09-12 19:15:00,78.6,76.4,29.69,North,-999,0.0,0.0,93,0.00,,,-99.99,0,WeatherLink 5.4,2013-09-12 23:15:00,
2013-09-12 19:29:00,78.6,76.4,29.69,North,-999,0.0,0.0,93,0.00,,,-99.99,0,WeatherLink 5.4,2013-09-12 23:29:00,
2013-09-12 19:30:00,78.6,76.4,29.69,North,-999,0.0,0.0,93,0.00,,,-99.99,0,WeatherLink 5.4,2013-09-12 23:30:00,
2013-09-12 19:40:00,78.5,76.3,29.69,North,-999,0.0,0.0,93,0.00,,,-99.99,0,WeatherLink 5.4,2013-09-12 23:40:00,
2013-09-12 19:44:00,78.5,76.3,29.69,North,-999,0.0,0.0,93,0.00,,,-99.99,0,WeatherLink 5.4,2013-09-12 23:44:00,
2013-09-12 19:59:00,78.6,76.4,29.69,North,-999,0.0,0.0,93,0.00,,,-99.99,0,WeatherLink 5.4,2013-09-12 23:59:00,
2013-09-12 20:00:00,78.5,76.3,29.69,North,-999,0.0,0.0,93,0.00,,,-99.99,0,WeatherLink 5.4,2013-09-13 00:00:00,
2013-09-12 20:10:00,78.5,76.3,29.69,North,-999,0.0,0.0,93,0.00,,,-99.99,0,WeatherLink 5.4,2013-09-13 00:10:00,
2013-09-12 20:14:00,78.5,76.3,29.69,North,-999,0.0,0.0,93,0.00,,,-99.99,0,WeatherLink 5.4,2013-09-13 00:14:00,
2013-09-12 20:29:00,78.4,76.2,29.70,North,-999,0.0,0.0,93,0.00,,,-99.99,0,WeatherLink 5.4,2013-09-13 00:29:00,
2013-09-12 20:30:00,78.3,76.1,29.71,North,-999,0.0,0.0,93,0.00,,,-99.99,0,WeatherLink 5.4,2013-09-13 00:30:00,
2013-09-12 20:40:00,78.1,75.9,29.71,North,-999,0.0,0.0,93,0.00,,,-99.99,0,WeatherLink 5.4,2013-09-13 00:40:00,
2013-09-12 20:44:00,78.1,75.9,29.71,North,-999,0.0,0.0,93,0.00,,,-99.99,0,WeatherLink 5.4,2013-09-13 00:44:00,
2013-09-12 20:59:00,78.1,75.9,29.71,North,-999,0.0,0.0,93,0.00,,,-99.99,0,WeatherLink 5.4,2013-09-13 00:59:00,
2013-09-12 21:00:00,78.1,75.9,29.71,North,-999,0.0,0.0,93,0.00,,,-99.99,0,WeatherLink 5.4,2013-09-13 01:00:00,
2013-09-12 21:10:00,78.1,76.2,29.71,North,-999,0.0,0.0,94,0.00,,,-99.99,0,WeatherLink 5.4,2013-09-13 01:10:00,
2013-09-12 21:14:00,78.1,76.2,29.71,North,-999,0.0,0.0,94,0.00,,,-99.99,0,WeatherLink 5.4,2013-09-13 01:14:00,
2013-09-12 21:29:00,78.0,76.1,29.71,North,-999,0.0,0.0,94,0.00,,,-99.99,0,WeatherLink 5.4,2013-09-13 01:29:00,
2013-09-12 21:30:00,77.9,76.0,29.71,North,-999,0.0,0.0,94,0.00,,,-99.99,0,WeatherLink 5.4,2013-09-13 01:30:00,
2013-09-12 21:40:00,77.8,75.9,29.71,North,-999,0.0,0.0,94,0.00,,,-99.99,0,WeatherLink 5.4,2013-09-13 01:40:00,
2013-09-12 21:44:00,77.8,75.9,29.71,North,-999,0.0,0.0,94,0.00,,,-99.99,0,WeatherLink 5.4,2013-09-13 01:44:00,
2013-09-12 21:59:00,77.7,75.8,29.72,North,-999,0.0,0.0,94,0.00,,,-99.99,0,WeatherLink 5.4,2013-09-13 01:59:00,
2013-09-12 22:00:00,77.7,75.8,29.71,North,-999,0.0,0.0,94,0.00,,,-99.99,0,WeatherLink 5.4,2013-09-13 02:00:00,
2013-09-12 22:10:00,77.7,75.8,29.71,North,-999,0.0,0.0,94,0.00,,,-99.99,0,WeatherLink 5.4,2013-09-13 02:10:00,
2013-09-12 22:15:00,77.7,75.8,29.71,North,-999,0.0,0.0,94,0.00,,,-99.99,0,WeatherLink 5.4,2013-09-13 02:15:00,
2013-09-12 22:20:00,77.7,75.8,29.71,North,-999,0.0,0.0,94,0.00,,,-99.99,0,WeatherLink 5.4,2013-09-13 02:20:00,
2013-09-12 22:30:00,77.6,75.7,29.72,North,-999,0.0,0.0,94,0.00,,,-99.99,0,WeatherLink 5.4,2013-09-13 02:30:00,
2013-09-12 22:40:00,77.6,75.7,29.72,North,-999,0.0,0.0,94,0.00,,,-99.99,0,WeatherLink 5.4,2013-09-13 02:40:00,
2013-09-12 22:45:00,77.6,75.7,29.72,North,-999,0.0,0.0,94,0.00,,,-99.99,0,WeatherLink 5.4,2013-09-13 02:45:00,
2013-09-12 22:59:00,77.5,75.6,29.72,North,-999,0.0,0.0,94,0.00,,,-99.99,0,WeatherLink 5.4,2013-09-13 02:59:00,
2013-09-12 23:00:00,77.4,75.5,29.71,North,-999,0.0,0.0,94,0.00,,,-99.99,0,WeatherLink 5.4,2013-09-13 03:00:00,
2013-09-12 23:10:00,77.3,75.4,29.71,North,-999,0.0,0.0,94,0.00,,,-99.99,0,WeatherLink 5.4,2013-09-13 03:10:00,
2013-09-12 23:14:00,77.3,75.4,29.71,North,-999,0.0,0.0,94,0.00,,,-99.99,0,WeatherLink 5.4,2013-09-13 03:14:00,
2013-09-12 23:29:00,77.2,75.3,29.71,North,-999,0.0,0.0,94,0.00,,,-99.99,0,WeatherLink 5.4,2013-09-13 03:29:00,
2013-09-12 23:30:00,77.2,75.3,29.71,North,-999,0.0,0.0,94,0.00,,,-99.99,0,WeatherLink 5.4,2013-09-13 03:30:00,
2013-09-12 23:40:00,77.2,75.3,29.71,North,-999,0.0,0.0,94,0.00,,,-99.99,0,WeatherLink 5.4,2013-09-13 03:40:00,
2013-09-12 23:44:00,77.2,75.3,29.71,North,-999,0.0,0.0,94,0.00,,,-99.99,0,WeatherLink 5.4,2013-09-13 03:44:00,
2013-09-12 23:59:00,77.0,75.1,29.70,North,-999,0.0,0.0,94,0.00,,,-99.99,0,WeatherLink 5.4,2013-09-13 03:59:00,